createdAt,value
2019-03-13T00:01:27.885Z,0.53
2019-03-13T00:03:55.821Z,0.68
2019-03-13T00:06:23.641Z,1.05
2019-03-13T00:08:51.634Z,1.35
2019-03-13T00:11:19.480Z,1.52
2019-03-13T00:13:47.374Z,0.82
2019-03-13T00:16:15.286Z,2.17
2019-03-13T00:18:43.128Z,0.68
2019-03-13T00:21:11.474Z,1.52
2019-03-13T00:23:39.513Z,2.67
2019-03-13T00:26:07.454Z,1.10
2019-03-13T00:28:35.338Z,0.93
2019-03-13T00:31:03.250Z,1.00
2019-03-13T00:33:31.216Z,1.30
2019-03-13T00:35:59.106Z,3.87
2019-03-13T00:38:27.080Z,1.20
2019-03-13T00:40:55.032Z,3.25
2019-03-13T00:43:22.860Z,0.78
2019-03-13T00:45:50.715Z,3.37
2019-03-13T00:48:18.624Z,2.40
2019-03-13T00:50:46.494Z,1.65
2019-03-13T00:53:14.358Z,2.00
2019-03-13T00:55:42.358Z,2.05
2019-03-13T00:58:10.198Z,2.27
2019-03-13T01:01:00.006Z,1.75
2019-03-13T01:03:47.618Z,2.22
2019-03-13T01:06:19.835Z,2.67
2019-03-13T01:08:47.795Z,1.00
2019-03-13T01:11:15.727Z,1.98
2019-03-13T01:13:43.620Z,1.25
2019-03-13T01:16:11.681Z,0.88
2019-03-13T01:18:39.686Z,1.67
2019-03-13T01:21:07.659Z,1.30
2019-03-13T01:23:35.630Z,1.62
2019-03-13T01:26:03.575Z,1.90
2019-03-13T01:28:31.449Z,2.25
2019-03-13T01:31:18.365Z,1.15
2019-03-13T01:33:46.313Z,2.08
2019-03-13T01:36:14.162Z,0.85
2019-03-13T01:38:42.244Z,0.65
2019-03-13T01:41:10.291Z,0.47
2019-03-13T01:43:38.188Z,1.32
2019-03-13T01:46:06.000Z,0.68
2019-03-13T01:48:34.006Z,0.50
2019-03-13T01:51:02.091Z,0.72
2019-03-13T01:53:30.141Z,1.15
2019-03-13T01:55:58.001Z,1.95
2019-03-13T01:58:25.849Z,1.40
2019-03-13T02:00:53.684Z,2.00
2019-03-13T02:03:21.562Z,1.12
2019-03-13T02:05:49.409Z,1.37
2019-03-13T02:08:17.369Z,2.72
2019-03-13T02:10:45.251Z,2.10
2019-03-13T02:13:13.210Z,1.85
2019-03-13T02:15:41.045Z,1.95
2019-03-13T02:18:08.986Z,3.98
2019-03-13T02:20:36.807Z,1.85
2019-03-13T02:23:04.690Z,2.12
2019-03-13T02:25:32.542Z,1.52
2019-03-13T02:28:00.406Z,1.65
2019-03-13T02:30:29.449Z,4.72
2019-03-13T02:32:57.286Z,2.40
2019-03-13T02:35:25.178Z,2.67
2019-03-13T02:37:53.052Z,2.87
2019-03-13T02:40:20.922Z,2.90
2019-03-13T02:42:48.842Z,2.00
2019-03-13T02:45:16.731Z,2.27
2019-03-13T02:47:44.564Z,3.22
2019-03-13T02:50:12.635Z,3.72
2019-03-13T02:52:40.577Z,2.30
2019-03-13T02:55:08.400Z,2.05
2019-03-13T02:57:36.303Z,2.42
2019-03-13T03:00:04.266Z,2.00
2019-03-13T03:02:44.580Z,2.45
2019-03-13T03:05:12.485Z,3.95
2019-03-13T03:07:40.421Z,1.98
2019-03-13T03:10:08.341Z,4.42
2019-03-13T03:12:36.320Z,4.08
2019-03-13T03:15:04.293Z,2.70
2019-03-13T03:17:32.265Z,3.80
2019-03-13T03:20:00.526Z,5.30
2019-03-13T03:22:28.556Z,3.33
2019-03-13T03:24:56.555Z,2.87
2019-03-13T03:27:24.480Z,3.10
2019-03-13T03:29:52.336Z,3.30
2019-03-13T03:32:20.245Z,1.75
2019-03-13T03:34:48.172Z,3.25
2019-03-13T03:37:16.077Z,5.10
2019-03-13T03:39:44.063Z,7.28
2019-03-13T03:42:11.899Z,5.10
2019-03-13T03:44:39.875Z,3.58
2019-03-13T03:47:07.836Z,4.97
2019-03-13T03:49:35.935Z,5.15
2019-03-13T03:52:04.009Z,8.15
2019-03-13T03:54:31.978Z,5.03
2019-03-13T03:56:59.914Z,3.87
2019-03-13T03:59:27.792Z,4.62
2019-03-13T04:01:55.669Z,6.40
2019-03-13T04:04:23.625Z,3.15
2019-03-13T04:06:51.571Z,5.10
2019-03-13T04:09:19.560Z,8.43
2019-03-13T04:11:47.504Z,5.10
2019-03-13T04:14:15.525Z,2.95
2019-03-13T04:16:43.503Z,6.37
2019-03-13T04:19:11.403Z,4.95
2019-03-13T04:21:39.342Z,6.50
2019-03-13T04:24:07.302Z,4.08
2019-03-13T04:26:35.136Z,6.70
2019-03-13T04:29:02.998Z,5.72
2019-03-13T04:31:31.048Z,5.20
2019-03-13T04:33:58.888Z,6.75
2019-03-13T04:36:26.780Z,6.28
2019-03-13T04:38:54.642Z,3.90
2019-03-13T04:41:22.523Z,5.37
2019-03-13T04:43:50.374Z,9.05
2019-03-13T04:46:18.261Z,3.85
2019-03-13T04:48:46.119Z,6.53
2019-03-13T04:51:14.004Z,4.40
2019-03-13T04:53:41.952Z,4.85
2019-03-13T04:56:09.837Z,6.37
2019-03-13T04:58:37.683Z,5.62
2019-03-13T05:01:05.565Z,6.97
2019-03-13T05:03:33.428Z,8.80
2019-03-13T05:06:01.285Z,5.50
2019-03-13T05:08:29.132Z,4.67
2019-03-13T05:10:57.026Z,10.25
2019-03-13T05:13:24.853Z,7.92
2019-03-13T05:15:52.746Z,10.48
2019-03-13T05:18:20.688Z,8.35
2019-03-13T05:20:48.578Z,8.43
2019-03-13T05:23:16.437Z,8.68
2019-03-13T05:25:44.306Z,10.32
2019-03-13T05:28:12.139Z,5.87
2019-03-13T05:30:40.027Z,7.03
2019-03-13T05:33:07.911Z,9.58
2019-03-13T05:35:35.783Z,10.30
2019-03-13T05:38:03.689Z,7.17
2019-03-13T05:40:31.525Z,8.75
2019-03-13T05:42:59.462Z,8.98
2019-03-13T05:45:27.351Z,6.22
2019-03-13T05:47:55.322Z,7.25
2019-03-13T05:50:23.208Z,8.25
2019-03-13T05:52:51.187Z,10.45
2019-03-13T05:55:19.052Z,10.90
2019-03-13T05:57:49.773Z,7.00
2019-03-13T06:00:19.035Z,10.18
2019-03-13T06:02:48.042Z,7.47
2019-03-13T06:05:16.154Z,8.15
2019-03-13T06:07:44.006Z,7.25
2019-03-13T06:10:11.958Z,7.67
2019-03-13T06:12:40.070Z,10.10
2019-03-13T06:15:08.008Z,8.40
2019-03-13T06:17:35.973Z,5.75
2019-03-13T06:20:03.844Z,5.65
2019-03-13T06:22:31.715Z,9.10
2019-03-13T06:24:59.637Z,7.25
2019-03-13T06:27:27.525Z,13.65
2019-03-13T06:29:55.505Z,13.30
2019-03-13T06:32:23.399Z,8.55
2019-03-13T06:34:51.232Z,15.15
2019-03-13T06:37:19.113Z,36.15
2019-03-13T06:39:50.090Z,16.07
2019-03-13T06:42:17.947Z,20.48
2019-03-13T06:44:45.850Z,13.98
2019-03-13T06:47:13.725Z,23.57
2019-03-13T06:49:41.614Z,13.90
2019-03-13T06:52:09.483Z,17.37
2019-03-13T06:54:37.413Z,42.13
2019-03-13T06:57:05.282Z,18.55
2019-03-13T06:59:51.122Z,25.65
2019-03-13T07:02:28.355Z,16.07
2019-03-13T07:05:22.078Z,13.32
2019-03-13T07:08:07.702Z,15.48
2019-03-13T07:10:43.956Z,9.28
2019-03-13T07:13:33.608Z,9.30
2019-03-13T07:16:20.537Z,8.40
2019-03-13T07:19:10.998Z,11.18
2019-03-13T07:22:13.260Z,7.60
2019-03-13T07:25:03.238Z,9.33
2019-03-13T07:27:50.144Z,7.58
2019-03-13T07:30:27.692Z,9.93
2019-03-13T07:33:04.841Z,11.05
2019-03-13T07:36:00.862Z,8.45
2019-03-13T07:38:47.108Z,7.20
2019-03-13T07:41:36.788Z,10.63
2019-03-13T07:44:26.733Z,9.15
2019-03-13T07:47:01.358Z,10.08
2019-03-13T07:49:46.987Z,43.02
2019-03-13T07:52:40.456Z,8.08
2019-03-13T07:55:27.438Z,11.12
2019-03-13T07:58:20.218Z,11.18
2019-03-13T08:01:19.235Z,10.10
2019-03-13T08:04:15.069Z,25.32
2019-03-13T08:06:47.843Z,25.88
2019-03-13T08:09:40.852Z,15.35
2019-03-13T08:12:30.599Z,14.83
2019-03-13T08:15:12.858Z,17.87
2019-03-13T08:18:02.828Z,29.18
2019-03-13T08:20:48.640Z,16.07
2019-03-13T08:26:45.761Z,37.90
2019-03-13T08:29:38.739Z,33.18
2019-03-13T08:32:28.652Z,27.15
2019-03-13T08:35:10.598Z,37.42
2019-03-13T08:37:57.525Z,43.50
2019-03-13T08:40:39.836Z,31.07
2019-03-13T08:43:25.596Z,16.40
2019-03-13T08:46:11.625Z,21.10
2019-03-13T08:48:47.332Z,15.78
2019-03-13T08:51:34.292Z,12.18
2019-03-13T08:54:36.271Z,8.08
2019-03-13T08:57:26.177Z,9.13
2019-03-13T09:00:20.441Z,9.70
2019-03-13T09:03:06.198Z,7.53
2019-03-13T09:08:46.610Z,10.05
2019-03-13T09:11:33.528Z,6.75
2019-03-13T09:14:20.451Z,7.70
2019-03-13T09:17:22.494Z,11.43
2019-03-13T09:20:15.353Z,10.55
2019-03-13T09:23:08.085Z,6.80
2019-03-13T09:25:54.998Z,12.60
2019-03-13T09:28:47.947Z,8.25
2019-03-13T09:31:26.045Z,10.03
2019-03-13T09:34:09.889Z,67.03
2019-03-13T09:36:50.719Z,70.52
2019-03-13T09:39:36.125Z,24.47
2019-03-13T09:42:21.361Z,8.68
2019-03-13T09:45:06.626Z,11.65
2019-03-13T09:50:31.753Z,10.98
2019-03-13T09:53:12.692Z,11.00
2019-03-13T09:56:05.757Z,10.40
2019-03-13T09:58:44.914Z,9.90
2019-03-13T10:01:39.799Z,13.93
2019-03-13T10:04:19.459Z,11.33
2019-03-13T10:07:15.426Z,9.55
2019-03-13T10:10:01.804Z,9.20
2019-03-13T10:12:39.014Z,11.40
2019-03-13T10:15:13.097Z,9.48
2019-03-13T10:17:53.452Z,10.28
2019-03-13T10:20:55.489Z,10.25
2019-03-13T10:23:41.310Z,9.43
2019-03-13T10:26:27.958Z,7.90
2019-03-13T10:29:00.616Z,10.15
2019-03-13T10:31:46.867Z,14.23
2019-03-13T10:34:46.165Z,8.28
2019-03-13T10:37:38.867Z,12.53
2019-03-13T10:40:24.599Z,11.25
2019-03-13T10:43:14.081Z,15.15
2019-03-13T10:45:58.103Z,11.20
2019-03-13T10:48:38.145Z,11.33
2019-03-13T10:51:23.713Z,9.93
2019-03-13T10:53:59.609Z,15.58
2019-03-13T10:56:49.618Z,11.25
2019-03-13T10:59:33.127Z,11.40
2019-03-13T11:02:23.203Z,10.98
2019-03-13T11:05:16.281Z,12.95
2019-03-13T11:08:03.287Z,10.20
2019-03-13T11:10:39.948Z,8.68
2019-03-13T11:13:32.750Z,11.28
2019-03-13T11:16:18.357Z,9.78
2019-03-13T11:18:58.517Z,8.83
2019-03-13T11:21:48.231Z,15.85
2019-03-13T11:24:25.539Z,9.55
2019-03-13T11:27:11.238Z,7.20
2019-03-13T11:30:09.971Z,9.03
2019-03-13T11:32:51.967Z,7.47
2019-03-13T11:35:37.775Z,12.23
2019-03-13T11:40:51.191Z,9.30
2019-03-13T11:43:41.094Z,8.58
2019-03-13T11:46:26.714Z,8.78
2019-03-13T11:49:18.513Z,7.80
2019-03-13T11:52:17.470Z,12.20
2019-03-13T11:55:05.819Z,9.53
2019-03-13T11:58:04.798Z,10.10
2019-03-13T12:01:00.249Z,7.83
2019-03-13T12:03:59.277Z,8.13
2019-03-13T12:06:35.619Z,10.05
2019-03-13T12:09:25.646Z,10.32
2019-03-13T12:12:11.491Z,7.55
2019-03-13T12:17:49.180Z,11.10
2019-03-13T12:20:34.813Z,7.40
2019-03-13T12:23:21.438Z,13.10
2019-03-13T12:26:17.202Z,7.47
2019-03-13T12:29:06.874Z,7.55
2019-03-13T12:31:56.935Z,14.05
2019-03-13T12:34:42.561Z,5.40
2019-03-13T12:37:32.446Z,10.05
2019-03-13T12:40:31.597Z,7.10
2019-03-13T12:43:16.392Z,8.40
2019-03-13T12:45:57.044Z,9.15
2019-03-13T12:48:53.340Z,8.00
2019-03-13T12:51:35.676Z,7.33
2019-03-13T12:54:35.010Z,7.75
2019-03-13T12:57:15.528Z,7.12
2019-03-13T13:00:02.406Z,6.20
2019-03-13T13:02:54.770Z,3.95
2019-03-13T13:05:43.858Z,4.20
2019-03-13T13:08:29.490Z,4.28
2019-03-13T13:11:10.949Z,4.17
2019-03-13T13:13:55.835Z,3.55
2019-03-13T13:16:57.541Z,5.50
2019-03-13T13:19:25.468Z,4.28
2019-03-13T13:21:53.662Z,2.40
2019-03-13T13:24:21.508Z,4.90
2019-03-13T13:26:50.380Z,6.95
2019-03-13T13:29:18.515Z,7.15
2019-03-13T13:31:46.475Z,3.62
2019-03-13T13:34:14.368Z,6.22
2019-03-13T13:36:45.037Z,5.85
2019-03-13T13:39:12.942Z,5.55
2019-03-13T13:41:40.919Z,8.73
2019-03-13T13:44:08.957Z,6.08
2019-03-13T13:46:36.837Z,7.72
2019-03-13T13:49:04.729Z,8.15
2019-03-13T13:51:32.975Z,7.47
2019-03-13T13:54:01.112Z,5.42
2019-03-13T13:56:28.997Z,6.42
2019-03-13T13:58:56.969Z,5.42
2019-03-13T14:01:24.982Z,7.47
2019-03-13T14:03:53.035Z,7.30
2019-03-13T14:06:20.933Z,5.75
2019-03-13T14:08:48.919Z,7.50
2019-03-13T14:11:16.903Z,3.67
2019-03-13T14:13:44.879Z,5.37
2019-03-13T14:16:12.871Z,5.15
2019-03-13T14:18:40.813Z,7.12
2019-03-13T14:21:08.700Z,6.03
2019-03-13T14:23:36.644Z,4.97
2019-03-13T14:26:04.624Z,6.87
2019-03-13T14:28:32.550Z,5.17
2019-03-13T14:31:00.562Z,7.28
2019-03-13T14:33:28.712Z,6.83
2019-03-13T14:35:56.719Z,5.12
2019-03-13T14:38:24.714Z,8.30
2019-03-13T14:40:52.835Z,6.67
2019-03-13T14:43:20.934Z,6.37
2019-03-13T14:45:48.976Z,6.53
2019-03-13T14:48:16.993Z,5.83
2019-03-13T14:50:47.505Z,7.33
2019-03-13T14:53:15.575Z,5.28
2019-03-13T14:55:43.654Z,7.30
2019-03-13T14:58:11.555Z,6.87
2019-03-13T15:00:39.421Z,5.97
2019-03-13T15:03:07.298Z,7.92
2019-03-13T15:05:35.165Z,4.67
2019-03-13T15:08:03.076Z,7.33
2019-03-13T15:10:30.958Z,7.08
2019-03-13T15:12:58.928Z,5.67
2019-03-13T15:15:26.811Z,8.53
2019-03-13T15:17:54.791Z,6.50
2019-03-13T15:20:22.649Z,8.70
2019-03-13T15:22:50.518Z,7.30
2019-03-13T15:25:18.365Z,7.90
2019-03-13T15:27:46.329Z,7.12
2019-03-13T15:30:14.303Z,6.10
2019-03-13T15:32:42.368Z,6.65
2019-03-13T15:35:10.337Z,6.08
2019-03-13T15:37:38.241Z,6.20
2019-03-13T15:40:06.159Z,7.30
2019-03-13T15:42:34.156Z,8.48
2019-03-13T15:45:02.286Z,15.28
2019-03-13T15:47:30.305Z,9.28
2019-03-13T15:49:58.179Z,16.02
2019-03-13T15:52:26.031Z,8.40
2019-03-13T15:54:53.928Z,7.62
2019-03-13T15:57:21.899Z,7.03
2019-03-13T15:59:49.876Z,5.37
2019-03-13T16:02:17.722Z,3.55
2019-03-13T16:04:45.625Z,5.65
2019-03-13T16:07:13.500Z,6.50
2019-03-13T16:09:41.703Z,4.50
2019-03-13T16:12:09.569Z,6.17
2019-03-13T16:14:37.541Z,4.00
2019-03-13T16:17:05.478Z,3.30
2019-03-13T16:19:33.499Z,6.75
2019-03-13T16:22:02.155Z,4.62
2019-03-13T16:24:30.106Z,4.55
2019-03-13T16:26:58.083Z,3.60
2019-03-13T16:29:26.132Z,6.37
2019-03-13T16:31:53.976Z,5.12
2019-03-13T16:34:21.943Z,4.72
2019-03-13T16:36:49.795Z,3.85
2019-03-13T16:39:17.789Z,3.47
2019-03-13T16:41:45.643Z,3.80
2019-03-13T16:44:13.674Z,7.50
2019-03-13T16:46:41.740Z,5.20
2019-03-13T16:49:09.704Z,5.53
2019-03-13T16:51:37.699Z,8.55
2019-03-13T16:54:05.896Z,6.15
2019-03-13T16:56:33.816Z,6.72
2019-03-13T16:59:01.790Z,5.03
2019-03-13T17:01:29.695Z,4.03
2019-03-13T17:03:57.558Z,4.60
2019-03-13T17:06:25.561Z,6.90
2019-03-13T17:08:53.542Z,12.65
2019-03-13T17:11:21.453Z,7.10
2019-03-13T17:13:49.371Z,6.03
2019-03-13T17:16:17.332Z,8.25
2019-03-13T17:18:45.538Z,8.33
2019-03-13T17:21:13.521Z,6.03
2019-03-13T17:23:41.505Z,10.78
2019-03-13T17:26:10.041Z,8.80
2019-03-13T17:28:37.992Z,6.97
2019-03-13T17:31:05.928Z,4.72
2019-03-13T17:33:33.872Z,7.33
2019-03-13T17:36:01.874Z,5.95
2019-03-13T17:38:29.832Z,12.40
2019-03-13T17:40:57.770Z,14.43
2019-03-13T17:43:38.208Z,9.90
2019-03-13T17:45:55.247Z,5.75
2019-03-13T17:48:23.144Z,6.45
2019-03-13T17:50:51.144Z,5.65
2019-03-13T17:53:19.146Z,5.05
2019-03-13T17:55:47.067Z,9.15
2019-03-13T17:58:14.941Z,9.45
2019-03-13T18:00:48.396Z,7.78
2019-03-13T18:03:16.280Z,5.50
2019-03-13T18:05:44.168Z,4.70
2019-03-13T18:08:12.072Z,4.50
2019-03-13T18:10:39.960Z,7.05
2019-03-13T18:13:07.844Z,6.22
2019-03-13T18:15:35.722Z,5.08
2019-03-13T18:18:03.613Z,10.13
2019-03-13T18:20:31.559Z,3.22
2019-03-13T18:22:59.533Z,4.85
2019-03-13T18:25:27.428Z,3.87
2019-03-13T18:27:55.424Z,2.83
2019-03-13T18:30:23.285Z,2.67
2019-03-13T18:32:51.154Z,2.52
2019-03-13T18:35:19.152Z,2.08
2019-03-13T18:37:47.371Z,2.40
2019-03-13T18:40:15.400Z,2.65
2019-03-13T18:42:43.417Z,2.98
2019-03-13T18:45:11.415Z,2.65
2019-03-13T18:47:39.318Z,3.55
2019-03-13T18:50:07.180Z,2.20
2019-03-13T18:52:35.150Z,2.25
2019-03-13T18:55:03.093Z,2.83
2019-03-13T18:57:31.089Z,5.60
2019-03-13T18:59:59.175Z,5.78
2019-03-13T19:02:27.223Z,2.72
2019-03-13T19:04:57.675Z,4.47
2019-03-13T19:07:24.985Z,3.58
2019-03-13T19:09:53.097Z,5.15
2019-03-13T19:12:21.257Z,4.53
2019-03-13T19:14:49.281Z,3.85
2019-03-13T19:17:17.435Z,5.92
2019-03-13T19:19:45.375Z,6.62
2019-03-13T19:22:13.443Z,5.83
2019-03-13T19:24:41.434Z,3.37
2019-03-13T19:27:09.353Z,6.12
2019-03-13T19:29:37.348Z,6.67
2019-03-13T19:32:05.524Z,2.95
2019-03-13T19:34:33.612Z,6.42
2019-03-13T19:37:01.575Z,3.87
2019-03-13T19:39:32.091Z,8.38
2019-03-13T19:41:59.392Z,7.12
2019-03-13T19:44:27.342Z,4.87
2019-03-13T19:46:55.426Z,4.35
2019-03-13T19:49:23.452Z,6.03
2019-03-13T19:51:51.507Z,5.33
2019-03-13T19:54:20.410Z,5.03
2019-03-13T19:56:48.405Z,4.20
2019-03-13T19:59:16.430Z,3.27
2019-03-13T20:01:44.401Z,5.25
2019-03-13T20:04:12.326Z,4.08
2019-03-13T20:06:42.449Z,3.80
2019-03-13T20:09:10.095Z,2.45
2019-03-13T20:11:38.010Z,2.10
2019-03-13T20:14:06.027Z,4.45
2019-03-13T20:16:52.973Z,1.85
2019-03-13T20:19:20.939Z,1.25
2019-03-13T20:21:48.985Z,0.65
2019-03-13T20:24:17.032Z,1.00
2019-03-13T20:26:45.208Z,1.55
2019-03-13T20:29:13.295Z,1.52
2019-03-13T20:31:41.406Z,1.52
2019-03-13T20:34:09.520Z,1.02
2019-03-13T20:36:37.701Z,1.65
2019-03-13T20:39:05.839Z,2.77
2019-03-13T20:41:35.186Z,2.22
2019-03-13T20:44:03.375Z,2.33
2019-03-13T20:46:31.477Z,1.52
2019-03-13T20:48:59.538Z,4.00
2019-03-13T20:51:27.576Z,2.75
2019-03-13T20:53:55.725Z,2.98
2019-03-13T20:56:24.427Z,2.25
2019-03-13T20:58:52.853Z,2.20
2019-03-13T21:01:20.938Z,2.77
2019-03-13T21:03:49.036Z,1.05
2019-03-13T21:06:17.278Z,3.87
2019-03-13T21:08:45.268Z,3.87
2019-03-13T21:11:13.503Z,2.92
2019-03-13T21:13:41.628Z,4.45
2019-03-13T21:16:09.758Z,4.65
2019-03-13T21:18:37.751Z,4.17
2019-03-13T21:21:05.779Z,5.10
2019-03-13T21:23:33.855Z,3.72
2019-03-13T21:26:01.979Z,4.47
2019-03-13T21:28:29.992Z,4.60
2019-03-13T21:30:58.100Z,10.95
2019-03-13T21:33:26.237Z,19.50
2019-03-13T21:35:54.308Z,31.82
2019-03-13T21:38:22.520Z,39.95
2019-03-13T21:40:50.724Z,14.90
2019-03-13T21:43:18.880Z,12.10
2019-03-13T21:45:46.967Z,10.15
2019-03-13T21:48:15.093Z,11.97
2019-03-13T21:50:43.244Z,22.58
2019-03-13T21:53:11.345Z,16.85
2019-03-13T21:55:39.206Z,13.62
2019-03-13T21:58:07.220Z,8.73
2019-03-13T22:00:35.088Z,7.85
2019-03-13T22:03:03.093Z,6.47
2019-03-13T22:05:31.063Z,5.58
2019-03-13T22:07:58.956Z,5.62
2019-03-13T22:10:26.986Z,6.40
2019-03-13T22:12:55.056Z,9.03
2019-03-13T22:15:23.099Z,10.70
2019-03-13T22:17:51.058Z,12.13
2019-03-13T22:20:19.105Z,9.90
2019-03-13T22:22:47.042Z,7.37
2019-03-13T22:25:14.977Z,8.58
2019-03-13T22:27:43.062Z,8.65
2019-03-13T22:30:11.039Z,9.05
2019-03-13T22:32:38.936Z,12.43
2019-03-13T22:35:06.939Z,12.13
2019-03-13T22:37:34.811Z,13.45
2019-03-13T22:40:02.700Z,7.33
2019-03-13T22:42:31.023Z,11.18
2019-03-13T22:44:59.124Z,11.90
2019-03-13T22:47:26.995Z,11.05
2019-03-13T22:49:54.881Z,14.07
2019-03-13T22:52:22.778Z,14.75
2019-03-13T22:54:50.644Z,15.60
2019-03-13T22:57:18.522Z,15.65
2019-03-13T22:59:46.439Z,17.70
2019-03-13T23:02:14.405Z,14.03
2019-03-13T23:04:42.280Z,15.10
2019-03-13T23:07:10.193Z,10.93
2019-03-13T23:09:38.084Z,13.90
2019-03-13T23:12:05.985Z,14.73
2019-03-13T23:14:33.839Z,16.80
2019-03-13T23:17:01.755Z,14.60
2019-03-13T23:19:29.615Z,13.30
2019-03-13T23:21:57.525Z,15.32
2019-03-13T23:24:25.468Z,12.55
2019-03-13T23:26:53.540Z,12.37
2019-03-13T23:29:21.519Z,18.07
2019-03-13T23:31:49.484Z,15.78
2019-03-13T23:34:17.357Z,16.87
2019-03-13T23:36:45.339Z,11.80
2019-03-13T23:39:13.294Z,15.28
2019-03-13T23:41:41.215Z,14.20
2019-03-13T23:44:09.182Z,13.78
2019-03-13T23:46:37.104Z,15.38
2019-03-13T23:49:04.979Z,15.65
2019-03-13T23:51:32.844Z,16.57
2019-03-13T23:54:00.734Z,14.83
2019-03-13T23:56:28.610Z,10.63
2019-03-13T23:58:56.498Z,12.43
